sensor_id;sensor_type;location;lat;lon;timestamp;P1;durP1;ratioP1;P2;durP2;ratioP2
21624;SDS011;10974;51.034;3.744;2023-08-06T03:40:51;1.20;;;1.10;;
21624;SDS011;10974;51.034;3.744;2023-08-06T03:43:17;1.30;;;1.03;;
21624;SDS011;10974;51.034;3.744;2023-08-06T03:45:43;1.87;;;1.00;;
21624;SDS011;10974;51.034;3.744;2023-08-06T03:48:09;2.47;;;1.13;;
21624;SDS011;10974;51.034;3.744;2023-08-06T03:50:35;1.60;;;1.50;;
21624;SDS011;10974;51.034;3.744;2023-08-06T03:53:01;1.20;;;1.10;;
21624;SDS011;10974;51.034;3.744;2023-08-06T03:55:27;3.73;;;1.03;;
21624;SDS011;10974;51.034;3.744;2023-08-06T03:57:54;2.20;;;1.10;;
21624;SDS011;10974;51.034;3.744;2023-08-06T04:00:20;3.13;;;1.23;;
21624;SDS011;10974;51.034;3.744;2023-08-06T04:02:46;1.57;;;1.10;;
21624;SDS011;10974;51.034;3.744;2023-08-06T04:05:13;2.43;;;1.30;;
21624;SDS011;10974;51.034;3.744;2023-08-06T04:07:39;1.33;;;1.10;;
21624;SDS011;10974;51.034;3.744;2023-08-06T04:10:05;1.30;;;1.20;;
21624;SDS011;10974;51.034;3.744;2023-08-06T04:12:31;2.57;;;1.20;;
21624;SDS011;10974;51.034;3.744;2023-08-06T04:15:01;2.53;;;1.10;;
21624;SDS011;10974;51.034;3.744;2023-08-06T04:17:28;1.77;;;1.20;;
21624;SDS011;10974;51.034;3.744;2023-08-06T04:19:55;2.53;;;1.10;;
21624;SDS011;10974;51.034;3.744;2023-08-06T04:22:24;3.40;;;1.00;;
21624;SDS011;10974;51.034;3.744;2023-08-06T04:24:50;3.87;;;1.13;;
21624;SDS011;10974;51.034;3.744;2023-08-06T04:27:16;3.77;;;1.30;;
21624;SDS011;10974;51.034;3.744;2023-08-06T04:29:42;1.20;;;1.10;;
21624;SDS011;10974;51.034;3.744;2023-08-06T04:32:09;3.70;;;1.20;;
21624;SDS011;10974;51.034;3.744;2023-08-06T04:34:36;2.53;;;1.10;;
21624;SDS011;10974;51.034;3.744;2023-08-06T04:37:02;1.40;;;1.17;;
21624;SDS011;10974;51.034;3.744;2023-08-06T04:39:28;1.17;;;1.07;;
21624;SDS011;10974;51.034;3.744;2023-08-06T04:41:55;3.47;;;1.10;;
21624;SDS011;10974;51.034;3.744;2023-08-06T04:44:22;1.70;;;1.20;;
21624;SDS011;10974;51.034;3.744;2023-08-06T04:46:48;1.80;;;1.17;;
21624;SDS011;10974;51.034;3.744;2023-08-06T04:49:15;3.73;;;1.20;;
21624;SDS011;10974;51.034;3.744;2023-08-06T04:51:41;1.20;;;1.10;;
21624;SDS011;10974;51.034;3.744;2023-08-06T04:54:07;2.73;;;1.10;;
21624;SDS011;10974;51.034;3.744;2023-08-06T04:56:33;1.00;;;1.00;;
21624;SDS011;10974;51.034;3.744;2023-08-06T04:58:59;1.53;;;1.17;;
21624;SDS011;10974;51.034;3.744;2023-08-06T05:01:25;1.37;;;1.00;;
21624;SDS011;10974;51.034;3.744;2023-08-06T05:03:51;1.10;;;1.03;;
21624;SDS011;10974;51.034;3.744;2023-08-06T05:06:17;2.90;;;1.50;;
21624;SDS011;10974;51.034;3.744;2023-08-06T05:08:43;1.67;;;1.30;;
21624;SDS011;10974;51.034;3.744;2023-08-06T05:11:09;1.70;;;1.10;;
21624;SDS011;10974;51.034;3.744;2023-08-06T05:13:35;1.30;;;1.10;;
21624;SDS011;10974;51.034;3.744;2023-08-06T05:16:01;1.20;;;1.10;;
21624;SDS011;10974;51.034;3.744;2023-08-06T05:18:28;12.70;;;1.30;;
21624;SDS011;10974;51.034;3.744;2023-08-06T05:20:55;2.07;;;1.10;;
21624;SDS011;10974;51.034;3.744;2023-08-06T05:23:22;3.50;;;1.10;;
21624;SDS011;10974;51.034;3.744;2023-08-06T05:25:48;1.23;;;0.90;;
21624;SDS011;10974;51.034;3.744;2023-08-06T05:28:14;7.23;;;1.20;;
21624;SDS011;10974;51.034;3.744;2023-08-06T05:30:40;5.63;;;1.47;;
21624;SDS011;10974;51.034;3.744;2023-08-06T05:33:06;6.20;;;1.27;;
21624;SDS011;10974;51.034;3.744;2023-08-06T05:35:33;5.17;;;1.43;;
21624;SDS011;10974;51.034;3.744;2023-08-06T05:37:59;3.40;;;1.50;;
21624;SDS011;10974;51.034;3.744;2023-08-06T05:40:25;3.50;;;1.30;;
21624;SDS011;10974;51.034;3.744;2023-08-06T05:42:54;4.30;;;1.47;;
21624;SDS011;10974;51.034;3.744;2023-08-06T05:45:20;3.70;;;1.60;;
21624;SDS011;10974;51.034;3.744;2023-08-06T05:47:49;7.30;;;1.70;;
21624;SDS011;10974;51.034;3.744;2023-08-06T05:50:15;7.83;;;1.50;;
21624;SDS011;10974;51.034;3.744;2023-08-06T05:52:41;7.73;;;1.70;;
21624;SDS011;10974;51.034;3.744;2023-08-06T05:55:07;3.97;;;1.30;;
21624;SDS011;10974;51.034;3.744;2023-08-06T05:57:34;5.00;;;1.47;;
21624;SDS011;10974;51.034;3.744;2023-08-06T06:00:00;7.80;;;1.30;;
21624;SDS011;10974;51.034;3.744;2023-08-06T06:02:26;4.33;;;1.73;;
21624;SDS011;10974;51.034;3.744;2023-08-06T06:04:52;6.73;;;1.60;;
21624;SDS011;10974;51.034;3.744;2023-08-06T06:07:18;2.33;;;1.40;;
21624;SDS011;10974;51.034;3.744;2023-08-06T06:09:44;4.37;;;1.60;;
21624;SDS011;10974;51.034;3.744;2023-08-06T06:12:10;1.57;;;1.20;;
21624;SDS011;10974;51.034;3.744;2023-08-06T06:14:36;2.70;;;1.43;;
21624;SDS011;10974;51.034;3.744;2023-08-06T06:17:02;7.30;;;1.40;;
21624;SDS011;10974;51.034;3.744;2023-08-06T06:19:28;9.93;;;1.80;;
21624;SDS011;10974;51.034;3.744;2023-08-06T06:21:54;3.87;;;1.60;;
21624;SDS011;10974;51.034;3.744;2023-08-06T06:24:22;6.73;;;1.43;;
21624;SDS011;10974;51.034;3.744;2023-08-06T06:26:48;3.40;;;1.37;;
21624;SDS011;10974;51.034;3.744;2023-08-06T06:29:14;3.13;;;2.10;;
21624;SDS011;10974;51.034;3.744;2023-08-06T06:31:40;5.93;;;1.30;;
21624;SDS011;10974;51.034;3.744;2023-08-06T06:34:06;3.43;;;1.27;;
21624;SDS011;10974;51.034;3.744;2023-08-06T06:36:32;1.60;;;1.20;;
21624;SDS011;10974;51.034;3.744;2023-08-06T06:38:58;3.37;;;1.10;;
21624;SDS011;10974;51.034;3.744;2023-08-06T06:41:25;1.53;;;0.97;;
21624;SDS011;10974;51.034;3.744;2023-08-06T06:43:51;1.90;;;1.00;;
21624;SDS011;10974;51.034;3.744;2023-08-06T06:46:17;1.20;;;0.87;;
21624;SDS011;10974;51.034;3.744;2023-08-06T06:48:43;3.00;;;1.17;;
21624;SDS011;10974;51.034;3.744;2023-08-06T06:51:09;5.07;;;1.57;;
21624;SDS011;10974;51.034;3.744;2023-08-06T06:53:35;5.20;;;1.77;;
21624;SDS011;10974;51.034;3.744;2023-08-06T06:56:02;4.13;;;1.57;;
21624;SDS011;10974;51.034;3.744;2023-08-06T06:58:29;6.57;;;1.60;;
21624;SDS011;10974;51.034;3.744;2023-08-06T07:00:55;8.73;;;1.90;;
21624;SDS011;10974;51.034;3.744;2023-08-06T07:03:21;8.20;;;2.20;;
21624;SDS011;10974;51.034;3.744;2023-08-06T07:05:47;5.53;;;2.20;;
21624;SDS011;10974;51.034;3.744;2023-08-06T07:08:13;6.17;;;1.87;;
21624;SDS011;10974;51.034;3.744;2023-08-06T07:10:43;3.63;;;1.83;;
21624;SDS011;10974;51.034;3.744;2023-08-06T07:13:09;3.50;;;1.50;;
21624;SDS011;10974;51.034;3.744;2023-08-06T07:15:35;5.13;;;1.57;;
21624;SDS011;10974;51.034;3.744;2023-08-06T07:18:01;5.00;;;1.70;;
21624;SDS011;10974;51.034;3.744;2023-08-06T07:20:27;4.37;;;1.70;;
21624;SDS011;10974;51.034;3.744;2023-08-06T07:22:56;5.40;;;2.13;;
21624;SDS011;10974;51.034;3.744;2023-08-06T07:25:23;4.83;;;2.07;;
21624;SDS011;10974;51.034;3.744;2023-08-06T07:27:49;7.80;;;1.90;;
21624;SDS011;10974;51.034;3.744;2023-08-06T07:30:15;5.27;;;1.87;;
21624;SDS011;10974;51.034;3.744;2023-08-06T07:32:41;2.80;;;1.67;;
21624;SDS011;10974;51.034;3.744;2023-08-06T07:35:07;5.43;;;1.50;;
21624;SDS011;10974;51.034;3.744;2023-08-06T07:37:37;5.30;;;1.83;;
21624;SDS011;10974;51.034;3.744;2023-08-06T07:40:03;6.80;;;2.00;;
21624;SDS011;10974;51.034;3.744;2023-08-06T07:42:29;4.83;;;1.80;;
21624;SDS011;10974;51.034;3.744;2023-08-06T07:44:56;10.03;;;1.80;;
21624;SDS011;10974;51.034;3.744;2023-08-06T07:47:22;5.63;;;1.97;;
21624;SDS011;10974;51.034;3.744;2023-08-06T07:49:48;4.77;;;1.63;;
21624;SDS011;10974;51.034;3.744;2023-08-06T07:52:14;6.80;;;2.00;;
21624;SDS011;10974;51.034;3.744;2023-08-06T07:54:40;2.90;;;1.50;;
21624;SDS011;10974;51.034;3.744;2023-08-06T07:57:07;4.10;;;1.70;;
21624;SDS011;10974;51.034;3.744;2023-08-06T07:59:33;6.87;;;2.33;;
21624;SDS011;10974;51.034;3.744;2023-08-06T08:01:59;5.90;;;2.30;;
21624;SDS011;10974;51.034;3.744;2023-08-06T08:04:26;2.40;;;1.70;;
21624;SDS011;10974;51.034;3.744;2023-08-06T08:06:52;5.33;;;2.30;;
21624;SDS011;10974;51.034;3.744;2023-08-06T08:09:18;3.87;;;2.13;;
21624;SDS011;10974;51.034;3.744;2023-08-06T08:11:44;4.10;;;1.73;;
21624;SDS011;10974;51.034;3.744;2023-08-06T08:14:10;8.77;;;2.63;;
21624;SDS011;10974;51.034;3.744;2023-08-06T08:16:36;5.60;;;2.10;;
21624;SDS011;10974;51.034;3.744;2023-08-06T08:19:02;8.53;;;2.10;;
21624;SDS011;10974;51.034;3.744;2023-08-06T08:21:29;7.20;;;2.17;;
21624;SDS011;10974;51.034;3.744;2023-08-06T08:23:55;8.70;;;2.13;;
21624;SDS011;10974;51.034;3.744;2023-08-06T08:26:21;7.23;;;2.13;;
21624;SDS011;10974;51.034;3.744;2023-08-06T08:28:48;6.17;;;2.07;;
21624;SDS011;10974;51.034;3.744;2023-08-06T08:31:14;10.67;;;2.17;;
21624;SDS011;10974;51.034;3.744;2023-08-06T08:33:41;6.00;;;2.77;;
21624;SDS011;10974;51.034;3.744;2023-08-06T08:36:07;5.90;;;3.07;;
21624;SDS011;10974;51.034;3.744;2023-08-06T08:38:35;6.63;;;3.37;;
21624;SDS011;10974;51.034;3.744;2023-08-06T08:41:01;6.27;;;2.53;;
21624;SDS011;10974;51.034;3.744;2023-08-06T08:43:27;8.50;;;1.90;;
21624;SDS011;10974;51.034;3.744;2023-08-06T08:45:53;8.87;;;4.40;;
21624;SDS011;10974;51.034;3.744;2023-08-06T08:48:26;8.97;;;3.30;;
21624;SDS011;10974;51.034;3.744;2023-08-06T08:50:52;8.67;;;2.60;;
21624;SDS011;10974;51.034;3.744;2023-08-06T08:53:18;8.80;;;3.23;;
21624;SDS011;10974;51.034;3.744;2023-08-06T08:55:47;7.97;;;2.50;;
21624;SDS011;10974;51.034;3.744;2023-08-06T08:58:14;4.53;;;2.30;;
21624;SDS011;10974;51.034;3.744;2023-08-06T09:00:43;4.83;;;2.23;;
21624;SDS011;10974;51.034;3.744;2023-08-06T09:03:11;6.43;;;2.00;;
21624;SDS011;10974;51.034;3.744;2023-08-06T09:05:37;15.60;;;3.50;;
21624;SDS011;10974;51.034;3.744;2023-08-06T09:08:06;5.77;;;2.03;;
21624;SDS011;10974;51.034;3.744;2023-08-06T09:10:33;6.13;;;2.30;;
21624;SDS011;10974;51.034;3.744;2023-08-06T09:13:02;4.70;;;1.40;;
21624;SDS011;10974;51.034;3.744;2023-08-06T09:15:29;5.67;;;1.40;;
21624;SDS011;10974;51.034;3.744;2023-08-06T09:17:55;6.43;;;1.67;;
21624;SDS011;10974;51.034;3.744;2023-08-06T09:20:21;5.00;;;1.87;;
21624;SDS011;10974;51.034;3.744;2023-08-06T09:22:47;5.07;;;1.60;;
21624;SDS011;10974;51.034;3.744;2023-08-06T09:25:23;6.83;;;2.10;;
21624;SDS011;10974;51.034;3.744;2023-08-06T09:27:50;4.90;;;1.60;;
21624;SDS011;10974;51.034;3.744;2023-08-06T09:30:29;5.57;;;2.13;;
21624;SDS011;10974;51.034;3.744;2023-08-06T09:32:59;6.47;;;1.83;;
21624;SDS011;10974;51.034;3.744;2023-08-06T09:35:27;6.07;;;2.00;;
21624;SDS011;10974;51.034;3.744;2023-08-06T09:37:53;5.27;;;1.90;;
21624;SDS011;10974;51.034;3.744;2023-08-06T09:40:26;5.23;;;1.73;;
21624;SDS011;10974;51.034;3.744;2023-08-06T09:42:53;4.43;;;1.63;;
21624;SDS011;10974;51.034;3.744;2023-08-06T09:45:19;3.93;;;1.60;;
21624;SDS011;10974;51.034;3.744;2023-08-06T09:47:47;4.90;;;2.10;;
21624;SDS011;10974;51.034;3.744;2023-08-06T09:50:19;4.90;;;1.73;;
21624;SDS011;10974;51.034;3.744;2023-08-06T09:52:48;6.87;;;2.13;;
21624;SDS011;10974;51.034;3.744;2023-08-06T09:55:16;6.07;;;2.17;;
21624;SDS011;10974;51.034;3.744;2023-08-06T09:57:43;5.70;;;2.30;;
21624;SDS011;10974;51.034;3.744;2023-08-06T10:00:10;4.70;;;1.77;;
21624;SDS011;10974;51.034;3.744;2023-08-06T10:02:40;5.93;;;2.08;;
21624;SDS011;10974;51.034;3.744;2023-08-06T10:05:07;5.00;;;1.43;;
21624;SDS011;10974;51.034;3.744;2023-08-06T10:07:34;3.00;;;1.80;;
21624;SDS011;10974;51.034;3.744;2023-08-06T10:10:00;4.93;;;1.87;;
21624;SDS011;10974;51.034;3.744;2023-08-06T10:12:28;4.60;;;1.57;;
21624;SDS011;10974;51.034;3.744;2023-08-06T10:14:55;3.10;;;1.20;;
21624;SDS011;10974;51.034;3.744;2023-08-06T10:17:21;5.90;;;2.10;;
21624;SDS011;10974;51.034;3.744;2023-08-06T10:19:48;5.43;;;2.37;;
21624;SDS011;10974;51.034;3.744;2023-08-06T10:22:16;5.37;;;1.90;;
21624;SDS011;10974;51.034;3.744;2023-08-06T10:24:52;9.83;;;1.90;;
21624;SDS011;10974;51.034;3.744;2023-08-06T10:27:22;3.13;;;1.40;;
21624;SDS011;10974;51.034;3.744;2023-08-06T10:29:48;4.90;;;1.70;;
21624;SDS011;10974;51.034;3.744;2023-08-06T10:32:15;5.67;;;1.90;;
21624;SDS011;10974;51.034;3.744;2023-08-06T10:34:56;3.67;;;1.87;;
21624;SDS011;10974;51.034;3.744;2023-08-06T10:37:35;3.67;;;1.33;;
21624;SDS011;10974;51.034;3.744;2023-08-06T10:40:01;5.23;;;1.87;;
21624;SDS011;10974;51.034;3.744;2023-08-06T10:42:28;7.50;;;1.93;;
21624;SDS011;10974;51.034;3.744;2023-08-06T10:47:40;1.20;;;0.90;;
21624;SDS011;10974;51.034;3.744;2023-08-06T10:50:06;5.50;;;1.60;;
21624;SDS011;10974;51.034;3.744;2023-08-06T10:52:34;4.40;;;1.30;;
21624;SDS011;10974;51.034;3.744;2023-08-06T10:55:00;7.30;;;1.33;;
21624;SDS011;10974;51.034;3.744;2023-08-06T10:57:26;9.83;;;1.90;;
21624;SDS011;10974;51.034;3.744;2023-08-06T10:59:52;14.97;;;2.37;;
21624;SDS011;10974;51.034;3.744;2023-08-06T11:02:18;4.03;;;1.50;;
21624;SDS011;10974;51.034;3.744;2023-08-06T11:04:44;6.85;;;1.73;;
21624;SDS011;10974;51.034;3.744;2023-08-06T11:07:10;2.50;;;1.57;;
21624;SDS011;10974;51.034;3.744;2023-08-06T11:09:36;2.33;;;1.30;;
21624;SDS011;10974;51.034;3.744;2023-08-06T11:12:05;20.33;;;2.63;;
21624;SDS011;10974;51.034;3.744;2023-08-06T11:14:32;3.23;;;1.23;;
21624;SDS011;10974;51.034;3.744;2023-08-06T11:16:58;4.63;;;1.47;;
21624;SDS011;10974;51.034;3.744;2023-08-06T11:19:24;9.20;;;1.57;;
21624;SDS011;10974;51.034;3.744;2023-08-06T11:21:51;3.73;;;1.30;;
21624;SDS011;10974;51.034;3.744;2023-08-06T11:24:17;2.60;;;1.20;;
21624;SDS011;10974;51.034;3.744;2023-08-06T11:26:43;3.23;;;1.27;;
21624;SDS011;10974;51.034;3.744;2023-08-06T11:29:09;3.30;;;1.70;;
21624;SDS011;10974;51.034;3.744;2023-08-06T11:31:36;2.07;;;1.00;;
21624;SDS011;10974;51.034;3.744;2023-08-06T11:34:02;1.50;;;1.10;;
21624;SDS011;10974;51.034;3.744;2023-08-06T11:36:28;7.47;;;2.00;;
21624;SDS011;10974;51.034;3.744;2023-08-06T11:38:55;7.00;;;2.47;;
21624;SDS011;10974;51.034;3.744;2023-08-06T11:41:21;2.73;;;1.50;;
21624;SDS011;10974;51.034;3.744;2023-08-06T11:43:47;5.10;;;1.30;;
21624;SDS011;10974;51.034;3.744;2023-08-06T11:46:13;3.60;;;1.40;;
21624;SDS011;10974;51.034;3.744;2023-08-06T11:48:52;4.40;;;1.60;;
21624;SDS011;10974;51.034;3.744;2023-08-06T11:51:18;3.40;;;1.20;;
21624;SDS011;10974;51.034;3.744;2023-08-06T11:53:51;10.20;;;1.50;;
21624;SDS011;10974;51.034;3.744;2023-08-06T11:56:17;3.47;;;1.27;;
21624;SDS011;10974;51.034;3.744;2023-08-06T11:58:43;2.20;;;1.00;;
21624;SDS011;10974;51.034;3.744;2023-08-06T12:01:09;2.40;;;1.27;;
21624;SDS011;10974;51.034;3.744;2023-08-06T12:03:39;2.70;;;1.70;;
21624;SDS011;10974;51.034;3.744;2023-08-06T12:06:05;3.90;;;1.10;;
21624;SDS011;10974;51.034;3.744;2023-08-06T12:08:32;3.03;;;1.40;;
21624;SDS011;10974;51.034;3.744;2023-08-06T12:10:58;3.77;;;1.10;;
21624;SDS011;10974;51.034;3.744;2023-08-06T12:13:24;6.37;;;1.30;;
21624;SDS011;10974;51.034;3.744;2023-08-06T12:15:50;2.77;;;1.33;;
21624;SDS011;10974;51.034;3.744;2023-08-06T12:18:18;1.47;;;1.17;;
21624;SDS011;10974;51.034;3.744;2023-08-06T12:20:45;1.90;;;1.10;;
21624;SDS011;10974;51.034;3.744;2023-08-06T12:23:11;2.13;;;1.10;;
21624;SDS011;10974;51.034;3.744;2023-08-06T12:25:40;3.17;;;1.00;;
21624;SDS011;10974;51.034;3.744;2023-08-06T12:28:06;1.10;;;1.00;;
21624;SDS011;10974;51.034;3.744;2023-08-06T12:30:33;3.87;;;1.03;;
21624;SDS011;10974;51.034;3.744;2023-08-06T12:32:59;2.60;;;1.30;;
21624;SDS011;10974;51.034;3.744;2023-08-06T12:35:25;2.37;;;1.40;;
21624;SDS011;10974;51.034;3.744;2023-08-06T12:37:51;5.47;;;1.73;;
21624;SDS011;10974;51.034;3.744;2023-08-06T12:40:19;2.40;;;1.30;;
21624;SDS011;10974;51.034;3.744;2023-08-06T12:42:46;3.33;;;1.30;;
21624;SDS011;10974;51.034;3.744;2023-08-06T12:45:12;2.97;;;1.30;;
21624;SDS011;10974;51.034;3.744;2023-08-06T12:47:39;5.60;;;1.63;;
21624;SDS011;10974;51.034;3.744;2023-08-06T12:50:06;1.63;;;1.10;;
21624;SDS011;10974;51.034;3.744;2023-08-06T12:52:32;4.17;;;1.30;;
21624;SDS011;10974;51.034;3.744;2023-08-06T12:54:58;1.37;;;1.00;;
21624;SDS011;10974;51.034;3.744;2023-08-06T12:57:24;3.70;;;1.43;;
21624;SDS011;10974;51.034;3.744;2023-08-06T12:59:51;3.60;;;1.23;;
21624;SDS011;10974;51.034;3.744;2023-08-06T13:02:18;2.27;;;1.37;;
21624;SDS011;10974;51.034;3.744;2023-08-06T13:04:45;2.70;;;1.50;;
21624;SDS011;10974;51.034;3.744;2023-08-06T13:07:12;2.37;;;1.60;;
21624;SDS011;10974;51.034;3.744;2023-08-06T13:09:38;6.90;;;1.67;;
21624;SDS011;10974;51.034;3.744;2023-08-06T13:12:04;2.07;;;1.30;;
21624;SDS011;10974;51.034;3.744;2023-08-06T13:14:31;2.77;;;1.30;;
21624;SDS011;10974;51.034;3.744;2023-08-06T13:16:57;3.40;;;1.80;;
21624;SDS011;10974;51.034;3.744;2023-08-06T13:19:23;6.27;;;1.63;;
21624;SDS011;10974;51.034;3.744;2023-08-06T13:24:15;2.40;;;1.13;;
21624;SDS011;10974;51.034;3.744;2023-08-06T13:26:41;4.63;;;1.30;;
21624;SDS011;10974;51.034;3.744;2023-08-06T13:29:07;2.87;;;1.50;;
21624;SDS011;10974;51.034;3.744;2023-08-06T13:31:33;4.77;;;1.80;;
21624;SDS011;10974;51.034;3.744;2023-08-06T13:33:59;4.57;;;1.47;;
21624;SDS011;10974;51.034;3.744;2023-08-06T13:36:28;3.60;;;1.30;;
21624;SDS011;10974;51.034;3.744;2023-08-06T13:38:55;2.30;;;1.53;;
21624;SDS011;10974;51.034;3.744;2023-08-06T13:41:21;6.77;;;1.87;;
21624;SDS011;10974;51.034;3.744;2023-08-06T13:43:47;5.50;;;1.83;;
21624;SDS011;10974;51.034;3.744;2023-08-06T13:46:13;3.40;;;1.30;;
21624;SDS011;10974;51.034;3.744;2023-08-06T13:48:44;2.60;;;1.47;;
21624;SDS011;10974;51.034;3.744;2023-08-06T13:51:11;9.50;;;1.60;;
21624;SDS011;10974;51.034;3.744;2023-08-06T13:53:38;8.37;;;1.83;;
21624;SDS011;10974;51.034;3.744;2023-08-06T13:56:04;5.67;;;1.40;;
21624;SDS011;10974;51.034;3.744;2023-08-06T13:58:31;7.33;;;1.47;;
21624;SDS011;10974;51.034;3.744;2023-08-06T14:00:57;9.90;;;1.87;;
21624;SDS011;10974;51.034;3.744;2023-08-06T14:03:23;18.03;;;2.80;;
21624;SDS011;10974;51.034;3.744;2023-08-06T14:05:49;7.27;;;1.97;;
21624;SDS011;10974;51.034;3.744;2023-08-06T14:08:16;7.77;;;2.40;;
21624;SDS011;10974;51.034;3.744;2023-08-06T14:10:45;6.90;;;1.83;;
21624;SDS011;10974;51.034;3.744;2023-08-06T14:13:11;5.47;;;1.93;;
21624;SDS011;10974;51.034;3.744;2023-08-06T14:15:37;10.97;;;1.57;;
21624;SDS011;10974;51.034;3.744;2023-08-06T14:18:11;9.80;;;2.07;;
21624;SDS011;10974;51.034;3.744;2023-08-06T14:20:38;12.70;;;2.40;;
21624;SDS011;10974;51.034;3.744;2023-08-06T14:23:04;5.50;;;1.70;;
21624;SDS011;10974;51.034;3.744;2023-08-06T14:25:30;8.70;;;1.97;;
21624;SDS011;10974;51.034;3.744;2023-08-06T14:27:57;4.23;;;2.40;;
21624;SDS011;10974;51.034;3.744;2023-08-06T14:30:23;6.60;;;1.60;;
21624;SDS011;10974;51.034;3.744;2023-08-06T14:32:49;7.83;;;1.60;;
21624;SDS011;10974;51.034;3.744;2023-08-06T14:35:15;3.70;;;1.50;;
21624;SDS011;10974;51.034;3.744;2023-08-06T14:37:41;6.70;;;1.70;;
21624;SDS011;10974;51.034;3.744;2023-08-06T14:40:07;7.23;;;1.53;;
21624;SDS011;10974;51.034;3.744;2023-08-06T14:42:34;6.03;;;1.73;;
21624;SDS011;10974;51.034;3.744;2023-08-06T14:45:00;3.93;;;1.50;;
21624;SDS011;10974;51.034;3.744;2023-08-06T14:47:26;8.33;;;1.70;;
21624;SDS011;10974;51.034;3.744;2023-08-06T14:49:52;6.50;;;1.50;;
21624;SDS011;10974;51.034;3.744;2023-08-06T14:52:18;3.47;;;1.50;;
21624;SDS011;10974;51.034;3.744;2023-08-06T14:54:44;3.30;;;1.40;;
21624;SDS011;10974;51.034;3.744;2023-08-06T14:57:10;5.30;;;1.53;;
21624;SDS011;10974;51.034;3.744;2023-08-06T14:59:38;3.67;;;1.67;;
21624;SDS011;10974;51.034;3.744;2023-08-06T15:02:05;3.17;;;1.30;;
21624;SDS011;10974;51.034;3.744;2023-08-06T15:04:31;5.97;;;1.70;;
21624;SDS011;10974;51.034;3.744;2023-08-06T15:06:57;2.40;;;1.37;;
21624;SDS011;10974;51.034;3.744;2023-08-06T15:09:23;2.20;;;1.43;;
21624;SDS011;10974;51.034;3.744;2023-08-06T15:11:49;3.33;;;1.37;;
21624;SDS011;10974;51.034;3.744;2023-08-06T15:14:16;4.50;;;1.40;;
21624;SDS011;10974;51.034;3.744;2023-08-06T15:16:42;4.40;;;1.33;;
21624;SDS011;10974;51.034;3.744;2023-08-06T15:19:08;4.63;;;1.53;;
21624;SDS011;10974;51.034;3.744;2023-08-06T15:21:34;5.63;;;1.20;;
21624;SDS011;10974;51.034;3.744;2023-08-06T15:24:00;3.17;;;1.47;;
21624;SDS011;10974;51.034;3.744;2023-08-06T15:26:26;4.77;;;1.67;;
21624;SDS011;10974;51.034;3.744;2023-08-06T15:28:53;2.83;;;1.57;;
21624;SDS011;10974;51.034;3.744;2023-08-06T15:31:22;5.80;;;1.90;;
21624;SDS011;10974;51.034;3.744;2023-08-06T15:33:48;4.87;;;2.20;;
21624;SDS011;10974;51.034;3.744;2023-08-06T15:36:14;7.50;;;1.83;;
21624;SDS011;10974;51.034;3.744;2023-08-06T15:38:40;4.17;;;1.70;;
21624;SDS011;10974;51.034;3.744;2023-08-06T15:41:06;5.73;;;2.33;;
21624;SDS011;10974;51.034;3.744;2023-08-06T15:43:32;5.93;;;2.30;;
21624;SDS011;10974;51.034;3.744;2023-08-06T15:45:59;5.63;;;2.20;;
21624;SDS011;10974;51.034;3.744;2023-08-06T15:48:26;5.00;;;2.10;;
21624;SDS011;10974;51.034;3.744;2023-08-06T15:50:55;4.80;;;1.80;;
21624;SDS011;10974;51.034;3.744;2023-08-06T15:53:22;6.60;;;2.38;;
21624;SDS011;10974;51.034;3.744;2023-08-06T15:55:48;7.47;;;1.80;;
21624;SDS011;10974;51.034;3.744;2023-08-06T15:58:14;8.20;;;1.93;;
21624;SDS011;10974;51.034;3.744;2023-08-06T16:00:40;3.13;;;1.73;;
21624;SDS011;10974;51.034;3.744;2023-08-06T16:03:06;4.90;;;1.90;;
21624;SDS011;10974;51.034;3.744;2023-08-06T16:05:33;7.60;;;2.30;;
21624;SDS011;10974;51.034;3.744;2023-08-06T16:07:59;6.97;;;2.30;;
21624;SDS011;10974;51.034;3.744;2023-08-06T16:10:25;11.20;;;2.37;;
21624;SDS011;10974;51.034;3.744;2023-08-06T16:12:51;6.00;;;2.10;;
21624;SDS011;10974;51.034;3.744;2023-08-06T16:15:18;6.97;;;2.33;;
21624;SDS011;10974;51.034;3.744;2023-08-06T16:17:45;8.47;;;1.80;;
21624;SDS011;10974;51.034;3.744;2023-08-06T16:20:11;6.43;;;2.30;;
21624;SDS011;10974;51.034;3.744;2023-08-06T16:22:39;5.00;;;2.20;;
21624;SDS011;10974;51.034;3.744;2023-08-06T16:25:05;8.63;;;2.47;;
21624;SDS011;10974;51.034;3.744;2023-08-06T16:27:35;9.70;;;2.17;;
21624;SDS011;10974;51.034;3.744;2023-08-06T16:30:01;6.37;;;2.07;;
21624;SDS011;10974;51.034;3.744;2023-08-06T16:32:27;5.70;;;2.20;;
21624;SDS011;10974;51.034;3.744;2023-08-06T16:34:53;11.93;;;2.67;;
21624;SDS011;10974;51.034;3.744;2023-08-06T16:37:20;10.60;;;2.23;;
21624;SDS011;10974;51.034;3.744;2023-08-06T16:39:46;6.10;;;1.93;;
21624;SDS011;10974;51.034;3.744;2023-08-06T16:42:12;5.83;;;2.37;;
21624;SDS011;10974;51.034;3.744;2023-08-06T16:44:38;6.40;;;2.50;;
21624;SDS011;10974;51.034;3.744;2023-08-06T16:47:05;7.60;;;2.13;;
21624;SDS011;10974;51.034;3.744;2023-08-06T16:49:31;7.13;;;2.33;;
21624;SDS011;10974;51.034;3.744;2023-08-06T16:51:58;8.70;;;2.27;;
21624;SDS011;10974;51.034;3.744;2023-08-06T16:54:24;6.33;;;2.33;;
21624;SDS011;10974;51.034;3.744;2023-08-06T16:56:50;7.00;;;2.20;;
21624;SDS011;10974;51.034;3.744;2023-08-06T16:59:16;10.15;;;2.40;;
21624;SDS011;10974;51.034;3.744;2023-08-06T17:01:42;8.07;;;2.33;;
21624;SDS011;10974;51.034;3.744;2023-08-06T17:04:08;7.70;;;2.47;;
21624;SDS011;10974;51.034;3.744;2023-08-06T17:06:34;6.10;;;2.23;;
21624;SDS011;10974;51.034;3.744;2023-08-06T17:09:00;5.60;;;1.80;;
21624;SDS011;10974;51.034;3.744;2023-08-06T17:11:29;5.47;;;2.40;;
21624;SDS011;10974;51.034;3.744;2023-08-06T17:13:57;10.83;;;3.00;;
21624;SDS011;10974;51.034;3.744;2023-08-06T17:16:23;5.90;;;2.43;;
21624;SDS011;10974;51.034;3.744;2023-08-06T17:18:49;5.47;;;2.60;;
21624;SDS011;10974;51.034;3.744;2023-08-06T17:21:15;6.80;;;2.60;;
21624;SDS011;10974;51.034;3.744;2023-08-06T17:23:41;6.73;;;2.37;;
21624;SDS011;10974;51.034;3.744;2023-08-06T17:26:07;5.50;;;2.70;;
21624;SDS011;10974;51.034;3.744;2023-08-06T17:28:33;8.90;;;2.50;;
21624;SDS011;10974;51.034;3.744;2023-08-06T17:30:59;9.73;;;2.80;;
21624;SDS011;10974;51.034;3.744;2023-08-06T17:33:25;5.20;;;2.37;;
21624;SDS011;10974;51.034;3.744;2023-08-06T17:35:51;7.17;;;2.73;;
21624;SDS011;10974;51.034;3.744;2023-08-06T17:38:17;8.33;;;2.33;;
21624;SDS011;10974;51.034;3.744;2023-08-06T17:40:43;6.97;;;2.60;;
21624;SDS011;10974;51.034;3.744;2023-08-06T17:43:09;8.00;;;2.93;;
21624;SDS011;10974;51.034;3.744;2023-08-06T17:45:36;8.20;;;2.93;;
21624;SDS011;10974;51.034;3.744;2023-08-06T17:48:02;7.03;;;2.37;;
21624;SDS011;10974;51.034;3.744;2023-08-06T17:50:29;5.97;;;2.50;;
21624;SDS011;10974;51.034;3.744;2023-08-06T17:52:55;5.47;;;2.30;;
21624;SDS011;10974;51.034;3.744;2023-08-06T17:55:21;6.30;;;3.10;;
21624;SDS011;10974;51.034;3.744;2023-08-06T17:57:47;7.70;;;2.33;;
21624;SDS011;10974;51.034;3.744;2023-08-06T18:00:13;4.23;;;2.13;;
21624;SDS011;10974;51.034;3.744;2023-08-06T18:02:39;8.30;;;2.50;;
21624;SDS011;10974;51.034;3.744;2023-08-06T18:05:05;9.47;;;2.70;;
21624;SDS011;10974;51.034;3.744;2023-08-06T18:07:31;9.97;;;2.43;;
21624;SDS011;10974;51.034;3.744;2023-08-06T18:09:57;9.43;;;2.80;;
21624;SDS011;10974;51.034;3.744;2023-08-06T18:12:23;5.90;;;2.40;;
21624;SDS011;10974;51.034;3.744;2023-08-06T18:14:49;6.90;;;2.33;;
21624;SDS011;10974;51.034;3.744;2023-08-06T18:17:16;8.80;;;2.17;;
21624;SDS011;10974;51.034;3.744;2023-08-06T18:19:42;7.63;;;2.80;;
21624;SDS011;10974;51.034;3.744;2023-08-06T18:22:08;5.80;;;2.40;;
21624;SDS011;10974;51.034;3.744;2023-08-06T18:24:34;4.50;;;2.53;;
21624;SDS011;10974;51.034;3.744;2023-08-06T18:27:00;4.17;;;2.03;;
21624;SDS011;10974;51.034;3.744;2023-08-06T18:29:26;7.00;;;2.30;;